Time;durP1;ratioP1;P1;durP2;ratioP2;P2;SDS_P1;SDS_P2;PMS_P1;PMS_P2;Temp;Humidity;BMP_temperature;BMP_pressure;BME280_temperature;BME280_humidity;BME280_pressure;Samples;Min_cycle;Max_cycle;Signal;HPM_P1;HPM_P2
2023/06/29 00:01:51;;;;;;;7.30;1.20;;;;;;;15.16;81.63;100285.34;109918;1276;22226;-60
2023/06/29 00:04:25;;;;;;;5.70;1.20;;;;;;;15.13;81.65;100284.68;109939;1273;23382;-60
2023/06/29 00:06:56;;;;;;;7.00;1.40;;;;;;;15.12;81.79;100287.48;105732;1270;5440133;-60
2023/06/29 00:09:28;;;;;;;10.10;1.30;;;;;;;15.11;81.84;100289.33;109920;1273;22288;-60
2023/06/29 00:11:58;;;;;;;9.90;1.40;;;;;;;15.10;81.89;100292.08;109931;1267;22311;-60
2023/06/29 00:14:29;;;;;;;6.90;1.30;;;;;;;15.07;81.83;100295.04;109904;1267;23346;-60
2023/06/29 00:17:00;;;;;;;14.60;2.40;;;;;;;15.06;81.96;100295.77;109897;1282;22208;-59
2023/06/29 00:19:31;;;;;;;6.60;1.30;;;;;;;15.05;81.89;100298.73;109950;1276;22130;-60
2023/06/29 00:22:02;;;;;;;7.10;1.50;;;;;;;15.02;82.08;100303.21;109951;1267;22164;-59
2023/06/29 00:24:42;;;;;;;8.30;1.50;;;;;;;15.02;82.06;100301.52;109951;1267;22129;-60
2023/06/29 00:27:13;;;;;;;7.50;1.80;;;;;;;15.01;82.25;100301.52;109884;1267;22186;-59
2023/06/29 00:29:45;;;;;;;8.20;1.80;;;;;;;14.98;82.23;100302.23;109942;1276;22209;-60
2023/06/29 00:32:16;;;;;;;6.90;1.40;;;;;;;14.95;82.29;100304.94;109933;1274;22643;-59
2023/06/29 00:34:47;;;;;;;9.70;1.80;;;;;;;14.92;82.26;100305.15;109929;1282;22214;-60
2023/06/29 00:37:18;;;;;;;7.40;1.40;;;;;;;14.91;82.31;100304.27;109880;1276;22221;-59
2023/06/29 00:39:49;;;;;;;5.30;1.40;;;;;;;14.90;82.46;100300.63;109904;1276;22876;-59
2023/06/29 00:42:20;;;;;;;7.70;1.50;;;;;;;14.89;82.46;100302.31;109866;1271;22193;-60
2023/06/29 00:44:50;;;;;;;15.10;2.50;;;;;;;14.88;82.57;100298.95;109904;1266;22130;-60
2023/06/29 00:47:22;;;;;;;7.70;1.70;;;;;;;14.85;82.51;100300.77;109857;1267;22933;-60
2023/06/29 00:49:53;;;;;;;10.10;2.00;;;;;;;14.81;82.66;100301.33;109946;1282;22226;-59
2023/06/29 00:52:24;;;;;;;7.20;1.80;;;;;;;14.77;82.64;100304.54;109913;1267;22210;-60
2023/06/29 00:54:56;;;;;;;9.70;1.70;;;;;;;14.74;82.59;100301.77;109937;1274;22202;-60
2023/06/29 00:57:29;;;;;;;7.30;1.40;;;;;;;14.69;82.75;100297.96;109901;1272;22933;-60
2023/06/29 01:00:00;;;;;;;4.90;1.40;;;;;;;14.62;82.83;100299.37;109914;1273;22154;-60
2023/06/29 01:02:35;;;;;;;7.60;1.30;;;;;;;14.55;82.90;100300.16;109908;1274;22151;-58
2023/06/29 01:05:09;;;;;;;9.20;1.80;;;;;;;14.53;82.92;100301.09;109893;1277;22217;-58
2023/06/29 01:07:46;;;;;;;8.00;1.30;;;;;;;14.53;83.27;100294.13;109931;1281;22157;-60
2023/06/29 01:10:21;;;;;;;7.80;1.70;;;;;;;14.51;83.16;100295.77;109917;1276;22196;-60
2023/06/29 01:12:53;;;;;;;12.70;1.50;;;;;;;14.49;83.24;100290.94;109894;1267;22205;-60
2023/06/29 01:15:24;;;;;;;7.00;1.70;;;;;;;14.46;83.27;100293.55;109935;1276;22183;-59
2023/06/29 01:17:59;;;;;;;7.20;1.70;;;;;;;14.43;83.41;100289.39;109889;1276;22411;-60
2023/06/29 01:20:32;;;;;;;7.50;1.20;;;;;;;14.37;83.51;100292.02;109926;1274;22189;-60
2023/06/29 01:23:10;;;;;;;5.40;1.50;;;;;;;14.31;83.59;100292.20;109921;1281;22492;-60
2023/06/29 01:25:42;;;;;;;8.10;1.60;;;;;;;14.28;83.78;100292.27;109939;1281;22743;-60
2023/06/29 01:28:12;;;;;;;6.60;1.60;;;;;;;14.25;83.95;100287.80;109911;1270;22227;-59
2023/06/29 01:30:48;;;;;;;7.50;1.50;;;;;;;14.20;83.88;100288.39;109926;1273;23116;-60
2023/06/29 01:33:22;;;;;;;6.70;1.50;;;;;;;14.18;83.98;100291.74;107607;1279;24283;-58
2023/06/29 01:36:01;;;;;;;10.00;1.70;;;;;;;14.18;84.12;100288.32;105902;1267;25369;-59
2023/06/29 01:38:38;;;;;;;6.90;1.50;;;;;;;14.17;84.37;100294.47;109931;1274;22424;-59
2023/06/29 01:41:12;;;;;;;7.60;1.70;;;;;;;14.16;84.53;100291.94;109930;1274;22200;-60
2023/06/29 01:43:45;;;;;;;9.30;1.90;;;;;;;14.15;84.69;100291.21;109930;1282;22220;-60
2023/06/29 01:46:16;;;;;;;6.90;1.80;;;;;;;14.14;85.02;100292.59;109931;1276;22215;-59
2023/06/29 01:48:48;;;;;;;7.70;1.80;;;;;;;14.12;85.12;100288.35;109919;1272;23041;-60
2023/06/29 01:51:20;;;;;;;6.50;1.60;;;;;;;14.12;85.13;100294.88;107412;1282;24560;-61
2023/06/29 01:53:52;;;;;;;7.30;1.80;;;;;;;14.12;85.21;100294.83;109931;1276;22166;-60
2023/06/29 01:56:23;;;;;;;6.20;1.50;;;;;;;14.12;85.49;100294.61;109952;1266;22206;-60
2023/06/29 01:58:54;;;;;;;8.10;1.60;;;;;;;14.11;85.57;100293.65;109933;1282;22148;-60
2023/06/29 02:01:25;;;;;;;14.00;2.40;;;;;;;14.10;85.60;100289.46;109923;1267;22914;-58
2023/06/29 02:03:56;;;;;;;7.30;1.90;;;;;;;14.11;85.58;100291.66;109886;1272;23115;-60
2023/06/29 02:06:27;;;;;;;6.80;1.60;;;;;;;14.10;85.56;100282.88;109957;1275;22876;-59
2023/06/29 02:08:58;;;;;;;8.20;1.60;;;;;;;14.11;85.34;100288.59;109909;1276;22160;-60
2023/06/29 02:11:29;;;;;;;9.60;2.10;;;;;;;14.11;85.42;100286.50;109892;1267;22190;-60
2023/06/29 02:14:00;;;;;;;7.40;1.30;;;;;;;14.07;85.23;100285.52;109940;1282;22883;-59
2023/06/29 02:16:31;;;;;;;6.00;1.50;;;;;;;14.04;85.30;100288.91;109947;1276;22180;-61
2023/06/29 02:19:01;;;;;;;6.80;1.70;;;;;;;14.02;85.29;100287.28;109947;1276;22185;-58
2023/06/29 02:21:32;;;;;;;7.60;1.40;;;;;;;14.00;85.16;100285.02;109915;1267;23194;-60
2023/06/29 02:24:03;;;;;;;5.40;1.50;;;;;;;13.96;85.11;100285.59;109911;1270;22133;-59
2023/06/29 02:26:34;;;;;;;7.70;1.80;;;;;;;13.94;85.18;100284.16;109930;1270;23326;-60
2023/06/29 02:29:05;;;;;;;5.50;1.50;;;;;;;13.90;85.25;100285.77;109929;1274;22154;-60
2023/06/29 02:31:36;;;;;;;9.70;1.90;;;;;;;13.87;85.20;100286.15;109912;1282;22178;-60
2023/06/29 02:34:07;;;;;;;5.40;1.50;;;;;;;13.84;85.24;100286.04;109925;1275;22236;-60
2023/06/29 02:36:39;;;;;;;9.60;1.80;;;;;;;13.81;85.25;100287.26;109923;1276;22847;-59
2023/06/29 02:39:10;;;;;;;5.70;1.40;;;;;;;13.78;85.21;100286.91;109924;1276;22180;-60
2023/06/29 02:41:40;;;;;;;7.50;1.90;;;;;;;13.75;85.19;100290.67;109898;1276;22968;-59
2023/06/29 02:44:11;;;;;;;7.00;1.80;;;;;;;13.70;85.31;100295.78;109927;1274;22324;-60
2023/06/29 02:46:42;;;;;;;6.60;1.50;;;;;;;13.64;85.34;100295.61;109932;1281;22497;-59
2023/06/29 02:49:15;;;;;;;7.20;1.60;;;;;;;13.61;85.49;100294.90;109922;1275;22191;-64
2023/06/29 02:51:46;;;;;;;5.20;1.50;;;;;;;13.60;85.57;100291.94;109935;1275;22220;-60
2023/06/29 02:54:17;;;;;;;6.20;1.60;;;;;;;13.60;85.46;100294.23;109912;1276;22806;-60
2023/06/29 02:56:48;;;;;;;6.60;1.70;;;;;;;13.57;85.53;100297.52;109923;1273;22394;-60
2023/06/29 02:59:19;;;;;;;7.50;1.60;;;;;;;13.55;85.50;100294.20;109960;1267;22319;-60
2023/06/29 03:01:50;;;;;;;6.40;1.60;;;;;;;13.54;85.67;100293.67;109935;1276;22247;-60
2023/06/29 03:04:21;;;;;;;8.90;1.70;;;;;;;13.52;85.70;100290.70;109915;1267;22167;-60
2023/06/29 03:06:51;;;;;;;8.80;1.70;;;;;;;13.50;85.75;100294.11;109957;1270;22865;-60
2023/06/29 03:09:22;;;;;;;9.50;2.20;;;;;;;13.47;85.95;100298.02;109936;1275;22955;-60
2023/06/29 03:11:54;;;;;;;8.60;1.90;;;;;;;13.45;86.10;100297.28;109892;1276;22171;-65
2023/06/29 03:14:25;;;;;;;6.40;1.40;;;;;;;13.43;86.17;100300.42;109921;1267;22220;-60
2023/06/29 03:16:56;;;;;;;6.50;1.60;;;;;;;13.42;86.35;100299.70;109928;1276;22316;-60
2023/06/29 03:19:27;;;;;;;9.50;2.80;;;;;;;13.41;86.73;100299.99;109879;1267;22201;-59
2023/06/29 03:21:58;;;;;;;5.90;1.70;;;;;;;13.42;87.04;100304.17;109903;1275;22319;-60
2023/06/29 03:24:29;;;;;;;7.90;2.20;;;;;;;13.42;86.96;100307.20;109936;1276;22166;-60
2023/06/29 03:27:00;;;;;;;7.70;1.90;;;;;;;13.45;86.96;100308.49;109917;1276;22230;-59
2023/06/29 03:29:31;;;;;;;7.70;2.10;;;;;;;13.46;86.99;100305.54;109939;1274;22232;-59
2023/06/29 03:32:02;;;;;;;9.30;2.30;;;;;;;13.46;87.25;100308.20;109936;1281;22158;-59
2023/06/29 03:34:33;;;;;;;7.10;2.30;;;;;;;13.46;87.31;100310.09;109961;1267;22421;-59
2023/06/29 03:37:04;;;;;;;10.20;2.30;;;;;;;13.47;87.51;100305.55;109941;1275;22183;-59
2023/06/29 03:39:35;;;;;;;9.50;2.50;;;;;;;13.47;87.57;100308.27;106937;1276;24224;-60
2023/06/29 03:42:06;;;;;;;10.70;2.70;;;;;;;13.48;87.70;100311.33;105900;1262;22556;-57
2023/06/29 03:44:39;;;;;;;10.70;2.40;;;;;;;13.48;88.34;100317.40;109920;1276;22239;-58
2023/06/29 03:47:10;;;;;;;13.10;2.50;;;;;;;13.51;88.83;100320.83;109922;1274;22147;-59
2023/06/29 03:49:41;;;;;;;13.30;2.90;;;;;;;13.53;89.17;100323.75;109943;1275;22230;-58
2023/06/29 03:52:12;;;;;;;10.10;2.80;;;;;;;13.55;89.37;100327.55;109866;1270;22215;-59
2023/06/29 03:54:43;;;;;;;8.50;2.40;;;;;;;13.57;89.62;100324.40;109917;1263;22182;-59
2023/06/29 03:57:14;;;;;;;11.50;3.10;;;;;;;13.63;89.24;100322.40;109934;1267;22932;-59
2023/06/29 03:59:45;;;;;;;11.50;3.70;;;;;;;13.68;89.83;100324.04;109272;1275;22760;-59
2023/06/29 04:02:16;;;;;;;13.50;3.00;;;;;;;13.75;90.26;100328.89;105912;1267;23042;-59
2023/06/29 04:04:47;;;;;;;8.90;2.60;;;;;;;13.82;90.38;100335.61;105963;1276;22524;-58
2023/06/29 04:07:18;;;;;;;9.90;2.70;;;;;;;13.89;90.52;100335.77;105917;1276;22545;-59
2023/06/29 04:09:49;;;;;;;16.50;4.10;;;;;;;13.97;90.72;100330.87;105882;1267;22556;-58
2023/06/29 04:12:20;;;;;;;13.60;2.90;;;;;;;14.04;90.57;100333.98;105892;1267;25648;-59
2023/06/29 04:14:50;;;;;;;9.60;3.10;;;;;;;14.11;90.64;100333.11;105896;1277;22527;-57
2023/06/29 04:17:21;;;;;;;12.40;3.20;;;;;;;14.18;90.68;100334.17;105922;1274;22905;-57
2023/06/29 04:19:52;;;;;;;10.40;3.40;;;;;;;14.26;90.88;100330.35;105923;1281;24107;-57
2023/06/29 04:22:23;;;;;;;12.60;2.90;;;;;;;14.36;90.92;100328.42;105856;1275;24109;-59
2023/06/29 04:24:54;;;;;;;7.50;2.40;;;;;;;14.46;91.03;100330.92;105876;1281;25351;-60
2023/06/29 04:27:25;;;;;;;8.70;2.60;;;;;;;14.55;90.82;100327.30;109855;1273;22207;-60
2023/06/29 04:30:29;;;;;;;10.60;3.00;;;;;;;14.65;90.94;100332.39;109869;1267;22788;-60
2023/06/29 04:33:10;;;;;;;13.50;3.00;;;;;;;14.76;90.74;100333.86;109853;1275;22223;-61
2023/06/29 04:35:43;;;;;;;13.80;3.00;;;;;;;14.87;90.82;100333.95;109922;1276;22214;-61
2023/06/29 04:38:14;;;;;;;9.60;2.40;;;;;;;14.97;90.76;100334.34;109944;1267;22121;-61
2023/06/29 04:40:44;;;;;;;9.20;2.50;;;;;;;15.08;90.55;100337.70;109900;1277;22324;-61
2023/06/29 04:43:16;;;;;;;10.90;2.60;;;;;;;15.19;90.34;100339.29;109916;1274;22388;-61
2023/06/29 04:45:47;;;;;;;7.30;2.20;;;;;;;15.30;90.21;100339.20;109920;1266;22155;-60
2023/06/29 04:48:17;;;;;;;10.90;2.70;;;;;;;15.39;89.88;100341.93;109860;1276;23046;-60
2023/06/29 04:50:49;;;;;;;15.50;2.60;;;;;;;15.48;90.03;100342.84;109913;1270;22173;-60
2023/06/29 04:53:20;;;;;;;16.60;2.90;;;;;;;15.58;89.90;100341.67;109889;1266;23103;-61
2023/06/29 04:55:50;;;;;;;12.10;2.40;;;;;;;15.68;89.73;100340.95;109976;1281;23023;-61
2023/06/29 04:58:21;;;;;;;7.20;1.90;;;;;;;15.79;89.43;100336.54;109928;1278;22206;-61
2023/06/29 05:00:54;;;;;;;13.00;4.00;;;;;;;15.88;89.07;100337.73;109934;1277;22191;-60
2023/06/29 05:03:27;;;;;;;9.50;2.40;;;;;;;15.98;88.33;100340.61;109897;1279;22123;-61
2023/06/29 05:05:58;;;;;;;14.10;3.10;;;;;;;16.06;88.30;100333.29;109944;1267;22387;-61
2023/06/29 05:08:28;;;;;;;9.10;2.10;;;;;;;16.16;88.44;100335.01;109929;1274;23002;-60
2023/06/29 05:10:59;;;;;;;10.20;2.10;;;;;;;16.27;87.60;100337.70;109953;1278;22219;-61
2023/06/29 05:13:32;;;;;;;10.20;1.80;;;;;;;16.34;87.43;100334.55;109954;1280;22123;-61
2023/06/29 05:16:04;;;;;;;9.90;2.00;;;;;;;16.42;87.19;100332.54;109612;1276;25346;-60
2023/06/29 05:18:35;;;;;;;11.40;2.10;;;;;;;16.50;86.81;100336.56;106003;1280;25312;-61
2023/06/29 05:21:07;;;;;;;8.10;1.60;;;;;;;16.57;86.45;100332.98;106106;1274;23334;-61
2023/06/29 05:23:38;;;;;;;9.90;2.30;;;;;;;16.64;86.47;100337.20;106131;1279;25369;-61
2023/06/29 05:26:09;;;;;;;9.80;1.60;;;;;;;16.73;86.66;100333.77;105976;1282;22533;-59
2023/06/29 05:28:40;;;;;;;11.00;2.30;;;;;;;16.84;86.53;100331.31;106066;1281;22660;-59
2023/06/29 05:31:11;;;;;;;11.90;1.90;;;;;;;16.93;85.96;100332.19;106066;1282;22527;-60
2023/06/29 05:33:43;;;;;;;10.60;1.70;;;;;;;17.00;85.81;100332.30;109944;1277;22215;-61
2023/06/29 05:36:13;;;;;;;7.20;1.50;;;;;;;17.07;85.62;100334.48;107902;1267;25400;-60
2023/06/29 05:38:44;;;;;;;10.00;1.90;;;;;;;17.14;85.51;100333.34;106026;1281;22517;-61
2023/06/29 05:41:15;;;;;;;8.60;2.20;;;;;;;17.21;84.99;100331.60;106034;1267;22527;-61
2023/06/29 05:43:46;;;;;;;7.50;1.90;;;;;;;17.28;84.79;100337.77;105887;1282;22620;-60
2023/06/29 05:46:18;;;;;;;8.70;1.50;;;;;;;17.35;84.78;100337.98;105970;1276;24224;-59
2023/06/29 05:48:48;;;;;;;7.30;1.60;;;;;;;17.44;85.28;100340.47;106020;1279;25583;-59
2023/06/29 05:51:19;;;;;;;10.00;1.80;;;;;;;17.54;84.61;100338.69;106010;1280;23459;-60
2023/06/29 05:53:50;;;;;;;10.00;1.80;;;;;;;17.62;84.46;100339.69;105989;1270;22536;-59
2023/06/29 05:56:21;;;;;;;9.30;1.50;;;;;;;17.71;84.43;100336.39;105916;1274;22527;-60
2023/06/29 05:58:53;;;;;;;9.40;1.90;;;;;;;17.81;84.10;100335.69;106037;1281;22558;-59
2023/06/29 06:01:24;;;;;;;9.20;2.00;;;;;;;17.90;83.78;100336.70;105911;1279;25251;-59
2023/06/29 06:03:55;;;;;;;11.80;1.80;;;;;;;17.95;82.91;100340.02;105923;1276;22521;-61
2023/06/29 06:06:30;;;;;;;9.00;1.70;;;;;;;18.00;82.88;100337.10;105906;1281;22526;-61
2023/06/29 06:09:01;;;;;;;7.50;1.80;;;;;;;18.08;82.38;100336.42;109864;1267;22149;-61
2023/06/29 06:11:32;;;;;;;9.70;2.00;;;;;;;18.15;82.20;100333.73;109946;1267;22376;-60
2023/06/29 06:14:03;;;;;;;7.30;1.60;;;;;;;18.22;82.16;100342.54;109965;1282;22983;-61
2023/06/29 06:16:34;;;;;;;7.80;1.70;;;;;;;18.29;81.75;100339.38;109895;1282;22173;-62
2023/06/29 06:19:05;;;;;;;7.80;1.70;;;;;;;18.34;81.39;100337.88;109922;1272;22224;-61
2023/06/29 06:21:36;;;;;;;8.40;1.50;;;;;;;18.41;81.00;100336.98;109898;1270;22203;-61
2023/06/29 06:24:07;;;;;;;6.50;1.50;;;;;;;18.49;80.60;100338.92;109922;1270;22225;-61
2023/06/29 06:26:38;;;;;;;7.60;1.70;;;;;;;18.56;80.61;100339.66;109932;1277;22182;-60
2023/06/29 06:29:09;;;;;;;7.50;1.70;;;;;;;18.65;81.00;100334.88;109938;1274;22091;-61
2023/06/29 06:31:40;;;;;;;9.50;1.70;;;;;;;18.76;80.92;100338.04;109907;1267;22162;-61
2023/06/29 06:34:11;;;;;;;8.40;1.60;;;;;;;18.88;80.77;100342.55;109953;1276;22229;-61
2023/06/29 06:36:42;;;;;;;9.00;1.60;;;;;;;18.98;79.55;100338.42;109937;1276;22850;-61
2023/06/29 06:39:14;;;;;;;8.20;1.20;;;;;;;19.04;79.44;100345.83;109915;1273;22837;-61
2023/06/29 06:41:45;;;;;;;11.20;1.60;;;;;;;19.11;78.17;100349.28;109894;1267;22223;-62
2023/06/29 06:44:16;;;;;;;7.50;1.20;;;;;;;19.16;77.80;100347.00;109920;1267;22340;-61
2023/06/29 06:46:47;;;;;;;5.30;0.90;;;;;;;19.21;76.73;100345.90;109933;1282;22549;-62
2023/06/29 06:49:18;;;;;;;4.10;0.90;;;;;;;19.24;76.20;100347.41;109419;1276;22527;-62
2023/06/29 06:51:50;;;;;;;6.70;1.30;;;;;;;19.28;76.11;100347.39;105951;1267;22538;-61
2023/06/29 06:54:21;;;;;;;4.70;1.00;;;;;;;19.31;76.50;100343.90;109919;1270;22845;-61
2023/06/29 06:56:52;;;;;;;4.40;1.10;;;;;;;19.39;76.18;100345.83;109920;1267;22193;-62
2023/06/29 06:59:23;;;;;;;8.60;1.10;;;;;;;19.46;75.61;100346.59;109919;1274;22189;-62
2023/06/29 07:01:54;;;;;;;5.40;1.10;;;;;;;19.51;75.09;100342.09;109919;1257;23719;-61
2023/06/29 07:04:25;;;;;;;6.50;1.30;;;;;;;19.54;75.45;100338.85;109950;1274;22207;-61
2023/06/29 07:06:56;;;;;;;9.20;1.10;;;;;;;19.60;75.44;100337.41;109922;1273;22346;-60
2023/06/29 07:09:27;;;;;;;5.10;1.20;;;;;;;19.69;75.87;100336.18;109925;1273;22157;-61
2023/06/29 07:11:58;;;;;;;8.50;1.40;;;;;;;19.80;75.68;100335.54;109923;1267;22270;-61
2023/06/29 07:14:29;;;;;;;8.10;1.80;;;;;;;19.89;74.70;100334.85;109917;1274;22164;-61
2023/06/29 07:17:00;;;;;;;6.90;1.10;;;;;;;19.93;74.21;100332.73;109954;1280;22196;-61
2023/06/29 07:19:31;;;;;;;5.80;1.10;;;;;;;20.00;74.63;100333.06;109942;1267;22172;-62
2023/06/29 07:22:02;;;;;;;6.20;1.10;;;;;;;20.05;73.34;100334.36;109906;1274;22829;-61
2023/06/29 07:24:32;;;;;;;7.40;1.50;;;;;;;20.07;73.40;100333.83;109915;1278;22970;-61
2023/06/29 07:27:04;;;;;;;5.90;1.00;;;;;;;20.11;73.43;100331.46;109939;1278;22495;-61
2023/06/29 07:29:35;;;;;;;5.40;1.10;;;;;;;20.16;72.98;100329.27;107383;1282;22618;-61
2023/06/29 07:32:07;;;;;;;8.10;1.60;;;;;;;20.19;72.78;100332.77;106017;1276;22591;-61
2023/06/29 07:34:38;;;;;;;6.80;1.30;;;;;;;20.24;72.05;100328.99;106670;1274;24253;-61
2023/06/29 07:37:10;;;;;;;5.90;1.30;;;;;;;20.27;71.85;100328.41;105837;1271;22519;-61
2023/06/29 07:39:41;;;;;;;5.80;1.30;;;;;;;20.34;72.40;100325.45;105872;1275;24286;-61
2023/06/29 07:42:12;;;;;;;9.20;1.40;;;;;;;20.47;72.22;100323.23;105914;1277;23358;-60
2023/06/29 07:44:43;;;;;;;5.70;1.20;;;;;;;20.61;71.64;100327.69;105963;1280;26911;-60
2023/06/29 07:47:15;;;;;;;5.90;1.30;;;;;;;20.69;71.44;100324.28;106021;1258;22747;-61
2023/06/29 07:49:46;;;;;;;4.80;1.10;;;;;;;20.75;70.80;100329.05;106129;1281;22531;-61
2023/06/29 07:52:17;;;;;;;5.20;1.30;;;;;;;20.82;71.02;100331.08;109882;1277;22301;-61
2023/06/29 07:54:49;;;;;;;5.90;1.30;;;;;;;20.84;70.56;100325.77;109920;1267;22162;-62
2023/06/29 07:57:19;;;;;;;6.80;1.20;;;;;;;20.89;70.49;100323.64;109927;1274;22242;-62
2023/06/29 07:59:50;;;;;;;7.40;1.20;;;;;;;21.01;70.49;100321.42;109921;1279;22192;-61
2023/06/29 08:02:21;;;;;;;9.70;1.00;;;;;;;21.13;69.72;100323.29;109896;1268;22145;-61
2023/06/29 08:04:52;;;;;;;5.70;1.10;;;;;;;21.21;69.11;100325.39;109910;1275;22287;-62
2023/06/29 08:07:23;;;;;;;7.10;1.10;;;;;;;21.19;68.28;100323.48;109930;1277;22133;-60
2023/06/29 08:09:54;;;;;;;6.70;1.20;;;;;;;21.12;68.60;100323.36;106568;1264;26561;-61
2023/06/29 08:12:27;;;;;;;6.60;1.10;;;;;;;21.09;68.33;100320.06;105868;1280;22610;-62
2023/06/29 08:14:58;;;;;;;6.90;1.30;;;;;;;21.09;67.16;100319.46;105947;1277;24736;-62
2023/06/29 08:17:30;;;;;;;5.80;1.10;;;;;;;21.06;66.74;100314.48;105954;1267;22588;-61
2023/06/29 08:20:01;;;;;;;8.60;1.00;;;;;;;21.10;66.92;100315.46;105986;1274;22539;-61
2023/06/29 08:22:32;;;;;;;5.10;0.90;;;;;;;21.16;66.68;100313.27;105924;1271;22533;-60
2023/06/29 08:25:03;;;;;;;4.80;1.00;;;;;;;21.22;66.06;100316.70;105879;1270;22523;-59
2023/06/29 08:27:35;;;;;;;7.30;0.90;;;;;;;21.21;65.30;100312.02;105931;1277;22541;-60
2023/06/29 08:30:09;;;;;;;6.30;0.90;;;;;;;21.18;64.88;100310.94;107727;1264;22533;-60
2023/06/29 08:32:40;;;;;;;5.60;0.90;;;;;;;21.18;65.43;100308.98;107282;1267;25391;-60
2023/06/29 08:35:12;;;;;;;4.50;1.00;;;;;;;21.26;65.07;100302.65;105935;1281;25445;-60
2023/06/29 08:37:43;;;;;;;4.90;1.00;;;;;;;21.35;64.75;100304.45;105992;1281;25278;-60
2023/06/29 08:40:19;;;;;;;4.90;0.80;;;;;;;21.39;64.24;100302.96;105803;1274;22606;-60
2023/06/29 08:42:50;;;;;;;10.60;0.90;;;;;;;21.48;65.02;100305.53;109848;1276;22210;-61
2023/06/29 08:45:21;;;;;;;4.00;1.00;;;;;;;21.59;64.69;100310.11;109951;1274;22198;-61
2023/06/29 08:47:54;;;;;;;5.50;0.90;;;;;;;21.64;64.54;100304.92;108296;1274;22537;-67
2023/06/29 08:50:28;;;;;;;3.60;0.90;;;;;;;21.75;64.33;100305.48;109969;1274;22165;-67
2023/06/29 08:52:59;;;;;;;5.80;1.10;;;;;;;21.83;63.28;100310.15;109929;1282;22341;-64
2023/06/29 08:55:31;;;;;;;6.90;1.00;;;;;;;21.84;62.77;100309.30;109925;1266;23374;-60
2023/06/29 08:58:02;;;;;;;5.00;1.00;;;;;;;21.82;62.97;100309.15;109911;1276;22340;-62
2023/06/29 09:00:33;;;;;;;7.10;1.70;;;;;;;21.83;61.92;100310.16;109917;1276;23358;-62
2023/06/29 09:03:06;;;;;;;6.10;1.20;;;;;;;21.86;62.22;100304.45;109887;1270;22158;-61
2023/06/29 09:05:37;;;;;;;5.10;1.10;;;;;;;21.98;62.33;100302.16;109946;1279;22181;-61
2023/06/29 09:08:08;;;;;;;4.80;1.00;;;;;;;22.10;62.74;100304.11;109925;1274;22173;-61
2023/06/29 09:10:42;;;;;;;6.80;1.10;;;;;;;22.22;62.47;100308.89;109951;1279;22185;-62
2023/06/29 09:13:13;;;;;;;3.50;0.80;;;;;;;22.29;62.13;100306.17;109899;1276;22311;-62
2023/06/29 09:15:45;;;;;;;2.70;0.70;;;;;;;22.29;60.41;100305.56;109945;1279;23033;-62
2023/06/29 09:18:22;;;;;;;4.10;0.80;;;;;;;22.27;60.35;100305.81;109918;1270;22910;-62
2023/06/29 09:20:56;;;;;;;3.40;0.80;;;;;;;22.27;60.40;100301.23;109880;1276;22191;-62
2023/06/29 09:23:27;;;;;;;3.00;0.80;;;;;;;22.35;60.37;100297.80;109946;1274;22969;-62
2023/06/29 09:25:59;;;;;;;13.10;3.00;;;;;;;22.46;60.68;100296.67;109913;1281;22415;-62
2023/06/29 09:28:30;;;;;;;5.50;1.10;;;;;;;22.60;59.37;100298.48;109927;1276;22190;-62
2023/06/29 09:31:09;;;;;;;3.60;0.80;;;;;;;22.60;58.77;100298.70;109902;1270;22335;-62
2023/06/29 09:33:40;;;;;;;8.20;1.00;;;;;;;22.56;58.64;100295.37;109912;1273;22209;-61
2023/06/29 09:36:12;;;;;;;6.50;0.90;;;;;;;22.48;58.36;100294.56;109910;1277;22239;-61
2023/06/29 09:38:47;;;;;;;3.10;0.80;;;;;;;22.36;58.28;100293.46;109910;1273;22849;-62
2023/06/29 09:41:18;;;;;;;3.10;0.80;;;;;;;22.30;58.78;100293.06;109933;1267;22288;-62
2023/06/29 09:43:49;;;;;;;8.10;0.80;;;;;;;22.33;58.57;100292.16;107705;1279;25387;-61
2023/06/29 09:46:20;;;;;;;4.10;0.80;;;;;;;22.34;58.21;100293.30;105896;1280;25539;-61
2023/06/29 09:48:51;;;;;;;5.10;1.00;;;;;;;22.35;58.29;100286.00;109886;1270;22198;-62
2023/06/29 09:51:24;;;;;;;4.20;1.10;;;;;;;22.42;58.76;100284.89;109171;1273;25368;-62
2023/06/29 09:53:56;;;;;;;7.20;1.00;;;;;;;22.55;58.94;100283.41;105872;1276;24239;-61
2023/06/29 09:56:28;;;;;;;5.60;1.10;;;;;;;22.66;58.54;100276.43;105936;1281;24287;-61
2023/06/29 09:59:00;;;;;;;9.10;0.90;;;;;;;22.82;58.89;100273.89;106027;1281;25312;-60
2023/06/29 10:01:32;;;;;;;6.00;0.90;;;;;;;22.96;57.79;100276.85;109904;1276;22155;-61
2023/06/29 10:04:04;;;;;;;5.90;0.90;;;;;;;22.96;57.31;100271.88;109917;1270;23375;-61
2023/06/29 10:06:39;;;;;;;5.10;0.80;;;;;;;22.97;57.23;100276.92;109893;1273;22191;-61
2023/06/29 10:09:12;;;;;;;3.10;0.80;;;;;;;22.90;56.58;100277.63;109924;1272;22169;-61
2023/06/29 10:11:47;;;;;;;6.50;0.90;;;;;;;22.74;56.25;100279.70;109905;1279;22303;-61
2023/06/29 10:14:19;;;;;;;3.00;0.70;;;;;;;22.62;56.61;100272.23;109918;1276;22176;-61
2023/06/29 10:16:52;;;;;;;7.30;0.80;;;;;;;22.63;56.58;100269.73;109954;1279;22392;-61
2023/06/29 10:19:24;;;;;;;8.10;1.20;;;;;;;22.62;56.65;100269.48;109907;1277;22201;-61
2023/06/29 10:21:59;;;;;;;5.70;0.80;;;;;;;22.64;56.08;100267.28;109906;1276;22184;-61
2023/06/29 10:24:34;;;;;;;5.00;0.70;;;;;;;22.64;55.92;100268.98;109775;1279;22548;-61
2023/06/29 10:27:07;;;;;;;4.50;0.80;;;;;;;22.69;55.98;100263.73;109904;1274;22223;-61
2023/06/29 10:29:46;;;;;;;3.50;0.80;;;;;;;22.80;56.38;100267.45;109930;1274;22245;-62
2023/06/29 10:32:33;;;;;;;5.60;1.00;;;;;;;22.88;55.78;100267.11;109899;1267;22266;-61
2023/06/29 10:35:06;;;;;;;4.60;0.70;;;;;;;22.86;55.61;100264.11;109934;1276;22208;-61
2023/06/29 10:37:38;;;;;;;5.30;0.80;;;;;;;22.86;55.26;100263.20;109909;1279;22180;-61
2023/06/29 10:40:17;;;;;;;6.40;1.00;;;;;;;22.81;55.19;100263.20;109911;1272;22960;-61
2023/06/29 10:43:08;;;;;;;3.50;0.80;;;;;;;22.77;55.55;100260.35;109891;1277;22141;-61
2023/06/29 10:45:40;;;;;;;6.70;0.80;;;;;;;22.74;55.48;100253.88;109904;1269;22124;-61
2023/06/29 10:48:17;;;;;;;5.40;0.90;;;;;;;22.72;55.29;100254.21;109922;1274;23117;-62
2023/06/29 10:50:50;;;;;;;4.30;0.90;;;;;;;22.73;55.13;100251.95;109907;1267;22190;-62
2023/06/29 10:53:23;;;;;;;5.20;0.70;;;;;;;22.73;54.91;100249.79;109891;1268;22465;-62
2023/06/29 10:55:56;;;;;;;5.40;0.90;;;;;;;22.81;55.13;100247.31;109901;1280;22161;-61
2023/06/29 10:58:28;;;;;;;3.50;0.70;;;;;;;22.87;55.04;100250.93;109901;1279;22186;-62
2023/06/29 11:01:00;;;;;;;4.50;0.90;;;;;;;22.91;54.56;100252.16;109943;1270;22376;-62
2023/06/29 11:03:34;;;;;;;5.70;0.70;;;;;;;22.92;53.93;100251.37;109916;1272;22381;-61
2023/06/29 11:06:07;;;;;;;4.40;0.70;;;;;;;22.90;53.50;100245.98;109888;1280;22321;-62
2023/06/29 11:08:38;;;;;;;4.50;0.70;;;;;;;22.88;53.25;100245.70;109911;1274;22964;-62
2023/06/29 11:11:18;;;;;;;3.70;0.60;;;;;;;22.87;53.73;100251.92;109937;1274;22336;-62
2023/06/29 11:13:49;;;;;;;2.80;0.50;;;;;;;22.92;53.64;100244.46;109984;1282;22220;-61
2023/06/29 11:16:20;;;;;;;8.10;0.70;;;;;;;23.01;53.60;100241.02;109960;1279;22249;-62
2023/06/29 11:18:51;;;;;;;4.80;0.60;;;;;;;23.13;53.72;100239.34;109891;1280;22276;-62
2023/06/29 11:21:25;;;;;;;5.20;0.70;;;;;;;23.25;52.87;100232.27;109902;1276;22106;-61
2023/06/29 11:23:56;;;;;;;3.00;0.70;;;;;;;23.38;52.88;100232.87;109907;1276;22960;-61
2023/06/29 11:26:27;;;;;;;4.30;0.70;;;;;;;23.53;52.71;100227.93;109915;1274;22194;-62
2023/06/29 11:28:58;;;;;;;4.70;0.80;;;;;;;23.69;52.70;100228.65;109968;1282;22902;-62
2023/06/29 11:31:30;;;;;;;6.80;0.80;;;;;;;23.87;53.51;100224.58;109922;1276;23025;-62
2023/06/29 11:34:01;;;;;;;3.80;0.50;;;;;;;24.09;52.65;100228.05;109916;1279;22841;-62
2023/06/29 11:36:32;;;;;;;2.80;0.60;;;;;;;24.16;51.51;100226.71;109949;1278;22219;-62
2023/06/29 11:39:08;;;;;;;3.20;0.70;;;;;;;24.19;50.71;100224.95;109909;1280;22173;-62